sensor_id;sensor_type;location;lat;lon;timestamp;P1;durP1;ratioP1;P2;durP2;ratioP2
34030;SDS011;20319;28.466;-16.274;2023-09-08T00:02:23;2.20;;;1.65;;
34030;SDS011;20319;28.466;-16.274;2023-09-08T00:04:50;3.67;;;1.60;;
34030;SDS011;20319;28.466;-16.274;2023-09-08T00:07:16;2.45;;;1.70;;
34030;SDS011;20319;28.466;-16.274;2023-09-08T00:09:41;2.55;;;1.65;;
34030;SDS011;20319;28.466;-16.274;2023-09-08T00:12:07;2.75;;;1.80;;
34030;SDS011;20319;28.466;-16.274;2023-09-08T00:14:32;2.95;;;1.88;;
34030;SDS011;20319;28.466;-16.274;2023-09-08T00:16:58;2.35;;;1.50;;
34030;SDS011;20319;28.466;-16.274;2023-09-08T00:19:24;3.85;;;1.58;;
34030;SDS011;20319;28.466;-16.274;2023-09-08T00:21:50;2.08;;;1.48;;
34030;SDS011;20319;28.466;-16.274;2023-09-08T00:24:16;2.25;;;1.55;;
34030;SDS011;20319;28.466;-16.274;2023-09-08T00:26:42;2.58;;;1.65;;
34030;SDS011;20319;28.466;-16.274;2023-09-08T00:29:08;2.03;;;1.65;;
34030;SDS011;20319;28.466;-16.274;2023-09-08T00:31:34;2.55;;;1.70;;
34030;SDS011;20319;28.466;-16.274;2023-09-08T00:33:59;3.60;;;1.90;;
34030;SDS011;20319;28.466;-16.274;2023-09-08T00:36:25;2.00;;;1.80;;
34030;SDS011;20319;28.466;-16.274;2023-09-08T00:38:51;1.75;;;1.65;;
34030;SDS011;20319;28.466;-16.274;2023-09-08T00:41:16;3.35;;;1.90;;
34030;SDS011;20319;28.466;-16.274;2023-09-08T00:43:42;4.32;;;2.10;;
34030;SDS011;20319;28.466;-16.274;2023-09-08T00:46:08;4.93;;;1.92;;
34030;SDS011;20319;28.466;-16.274;2023-09-08T00:48:34;2.30;;;2.10;;
34030;SDS011;20319;28.466;-16.274;2023-09-08T00:51:00;2.28;;;1.90;;
34030;SDS011;20319;28.466;-16.274;2023-09-08T00:53:27;2.80;;;1.90;;
34030;SDS011;20319;28.466;-16.274;2023-09-08T00:55:53;3.00;;;1.50;;
34030;SDS011;20319;28.466;-16.274;2023-09-08T00:58:19;2.17;;;1.50;;
34030;SDS011;20319;28.466;-16.274;2023-09-08T01:00:45;1.70;;;1.60;;
34030;SDS011;20319;28.466;-16.274;2023-09-08T01:03:11;2.28;;;1.52;;
34030;SDS011;20319;28.466;-16.274;2023-09-08T01:05:37;1.98;;;1.65;;
34030;SDS011;20319;28.466;-16.274;2023-09-08T01:08:04;2.03;;;1.75;;
34030;SDS011;20319;28.466;-16.274;2023-09-08T01:10:30;3.53;;;1.45;;
34030;SDS011;20319;28.466;-16.274;2023-09-08T01:12:56;3.03;;;2.17;;
34030;SDS011;20319;28.466;-16.274;2023-09-08T01:15:22;3.17;;;1.90;;
34030;SDS011;20319;28.466;-16.274;2023-09-08T01:17:48;3.78;;;2.17;;
34030;SDS011;20319;28.466;-16.274;2023-09-08T01:25:55;2.30;;;1.77;;
34030;SDS011;20319;28.466;-16.274;2023-09-08T01:28:26;2.88;;;2.00;;
34030;SDS011;20319;28.466;-16.274;2023-09-08T01:30:53;2.97;;;1.90;;
34030;SDS011;20319;28.466;-16.274;2023-09-08T01:33:20;2.42;;;2.03;;
34030;SDS011;20319;28.466;-16.274;2023-09-08T01:35:47;2.92;;;2.00;;
34030;SDS011;20319;28.466;-16.274;2023-09-08T01:38:13;2.90;;;2.20;;
34030;SDS011;20319;28.466;-16.274;2023-09-08T01:40:39;3.90;;;2.15;;
34030;SDS011;20319;28.466;-16.274;2023-09-08T01:43:05;2.58;;;2.17;;
34030;SDS011;20319;28.466;-16.274;2023-09-08T01:45:30;2.40;;;2.20;;
34030;SDS011;20319;28.466;-16.274;2023-09-08T01:47:56;2.13;;;1.90;;
34030;SDS011;20319;28.466;-16.274;2023-09-08T01:50:22;3.05;;;2.25;;
34030;SDS011;20319;28.466;-16.274;2023-09-08T01:52:49;2.47;;;1.98;;
34030;SDS011;20319;28.466;-16.274;2023-09-08T01:55:16;2.65;;;2.10;;
34030;SDS011;20319;28.466;-16.274;2023-09-08T01:57:42;3.15;;;1.95;;
34030;SDS011;20319;28.466;-16.274;2023-09-08T02:00:09;2.88;;;2.25;;
34030;SDS011;20319;28.466;-16.274;2023-09-08T02:02:37;2.83;;;2.00;;
34030;SDS011;20319;28.466;-16.274;2023-09-08T02:05:03;3.45;;;1.92;;
34030;SDS011;20319;28.466;-16.274;2023-09-08T02:07:29;2.38;;;1.88;;
34030;SDS011;20319;28.466;-16.274;2023-09-08T02:09:54;3.10;;;1.90;;
34030;SDS011;20319;28.466;-16.274;2023-09-08T02:12:21;3.17;;;1.90;;
34030;SDS011;20319;28.466;-16.274;2023-09-08T02:14:47;3.00;;;2.20;;
34030;SDS011;20319;28.466;-16.274;2023-09-08T02:17:12;2.95;;;2.00;;
34030;SDS011;20319;28.466;-16.274;2023-09-08T02:19:38;3.25;;;1.95;;
34030;SDS011;20319;28.466;-16.274;2023-09-08T02:22:04;3.40;;;1.95;;
34030;SDS011;20319;28.466;-16.274;2023-09-08T02:24:29;3.05;;;2.20;;
34030;SDS011;20319;28.466;-16.274;2023-09-08T02:26:55;3.35;;;2.03;;
34030;SDS011;20319;28.466;-16.274;2023-09-08T02:29:20;3.88;;;2.03;;
34030;SDS011;20319;28.466;-16.274;2023-09-08T02:31:47;3.63;;;2.10;;
34030;SDS011;20319;28.466;-16.274;2023-09-08T02:34:13;4.47;;;2.08;;
34030;SDS011;20319;28.466;-16.274;2023-09-08T02:36:39;4.18;;;2.35;;
34030;SDS011;20319;28.466;-16.274;2023-09-08T02:39:05;4.00;;;2.28;;
34030;SDS011;20319;28.466;-16.274;2023-09-08T02:41:30;2.33;;;1.80;;
34030;SDS011;20319;28.466;-16.274;2023-09-08T02:43:56;2.13;;;1.80;;
34030;SDS011;20319;28.466;-16.274;2023-09-08T02:46:22;3.63;;;1.98;;
34030;SDS011;20319;28.466;-16.274;2023-09-08T02:48:47;3.03;;;1.90;;
34030;SDS011;20319;28.466;-16.274;2023-09-08T02:51:13;2.50;;;2.00;;
34030;SDS011;20319;28.466;-16.274;2023-09-08T02:53:39;2.70;;;1.80;;
34030;SDS011;20319;28.466;-16.274;2023-09-08T02:56:04;2.58;;;1.60;;
34030;SDS011;20319;28.466;-16.274;2023-09-08T02:58:34;2.58;;;2.00;;
34030;SDS011;20319;28.466;-16.274;2023-09-08T03:01:10;3.15;;;1.95;;
34030;SDS011;20319;28.466;-16.274;2023-09-08T03:03:39;4.45;;;2.00;;
34030;SDS011;20319;28.466;-16.274;2023-09-08T03:06:05;4.57;;;1.83;;
34030;SDS011;20319;28.466;-16.274;2023-09-08T03:08:31;2.17;;;1.98;;
34030;SDS011;20319;28.466;-16.274;2023-09-08T03:10:57;2.13;;;1.75;;
34030;SDS011;20319;28.466;-16.274;2023-09-08T03:13:24;2.22;;;1.75;;
34030;SDS011;20319;28.466;-16.274;2023-09-08T03:15:51;3.05;;;1.95;;
34030;SDS011;20319;28.466;-16.274;2023-09-08T03:18:17;2.88;;;1.98;;
34030;SDS011;20319;28.466;-16.274;2023-09-08T03:20:42;3.42;;;1.90;;
34030;SDS011;20319;28.466;-16.274;2023-09-08T03:23:08;3.25;;;2.00;;
34030;SDS011;20319;28.466;-16.274;2023-09-08T03:25:34;1.90;;;1.65;;
34030;SDS011;20319;28.466;-16.274;2023-09-08T03:27:59;3.13;;;1.92;;
34030;SDS011;20319;28.466;-16.274;2023-09-08T03:30:25;3.38;;;2.00;;
34030;SDS011;20319;28.466;-16.274;2023-09-08T03:32:51;2.17;;;1.95;;
34030;SDS011;20319;28.466;-16.274;2023-09-08T03:35:16;3.25;;;1.92;;
34030;SDS011;20319;28.466;-16.274;2023-09-08T03:37:42;2.97;;;2.10;;
34030;SDS011;20319;28.466;-16.274;2023-09-08T03:40:08;2.38;;;2.10;;
34030;SDS011;20319;28.466;-16.274;2023-09-08T03:42:34;3.03;;;2.10;;
34030;SDS011;20319;28.466;-16.274;2023-09-08T03:45:02;3.15;;;2.25;;
34030;SDS011;20319;28.466;-16.274;2023-09-08T03:47:29;3.28;;;2.20;;
34030;SDS011;20319;28.466;-16.274;2023-09-08T03:49:54;4.25;;;2.15;;
34030;SDS011;20319;28.466;-16.274;2023-09-08T03:52:20;2.80;;;2.05;;
34030;SDS011;20319;28.466;-16.274;2023-09-08T03:54:46;2.10;;;1.85;;
34030;SDS011;20319;28.466;-16.274;2023-09-08T03:57:11;5.10;;;2.15;;
34030;SDS011;20319;28.466;-16.274;2023-09-08T03:59:37;3.40;;;2.05;;
34030;SDS011;20319;28.466;-16.274;2023-09-08T04:02:02;3.53;;;2.00;;
34030;SDS011;20319;28.466;-16.274;2023-09-08T04:04:28;3.70;;;2.30;;
34030;SDS011;20319;28.466;-16.274;2023-09-08T04:06:54;3.38;;;2.05;;
34030;SDS011;20319;28.466;-16.274;2023-09-08T04:09:19;2.78;;;1.80;;
34030;SDS011;20319;28.466;-16.274;2023-09-08T04:11:45;3.03;;;2.00;;
34030;SDS011;20319;28.466;-16.274;2023-09-08T04:14:11;3.45;;;2.00;;
34030;SDS011;20319;28.466;-16.274;2023-09-08T04:16:37;4.30;;;2.65;;
34030;SDS011;20319;28.466;-16.274;2023-09-08T04:19:02;3.05;;;2.40;;
34030;SDS011;20319;28.466;-16.274;2023-09-08T04:21:28;2.75;;;2.20;;
34030;SDS011;20319;28.466;-16.274;2023-09-08T04:23:53;2.50;;;2.10;;
34030;SDS011;20319;28.466;-16.274;2023-09-08T04:26:19;3.50;;;2.30;;
34030;SDS011;20319;28.466;-16.274;2023-09-08T04:28:45;5.22;;;2.60;;
34030;SDS011;20319;28.466;-16.274;2023-09-08T04:31:10;3.45;;;1.90;;
34030;SDS011;20319;28.466;-16.274;2023-09-08T04:33:36;2.95;;;2.03;;
34030;SDS011;20319;28.466;-16.274;2023-09-08T04:36:01;2.85;;;2.03;;
34030;SDS011;20319;28.466;-16.274;2023-09-08T04:38:27;2.97;;;1.95;;
34030;SDS011;20319;28.466;-16.274;2023-09-08T04:40:53;4.35;;;1.80;;
34030;SDS011;20319;28.466;-16.274;2023-09-08T04:43:18;3.08;;;2.10;;
34030;SDS011;20319;28.466;-16.274;2023-09-08T04:45:45;3.45;;;1.75;;
34030;SDS011;20319;28.466;-16.274;2023-09-08T04:48:10;2.95;;;1.98;;
34030;SDS011;20319;28.466;-16.274;2023-09-08T04:50:36;2.47;;;2.00;;
34030;SDS011;20319;28.466;-16.274;2023-09-08T04:53:01;2.63;;;2.25;;
34030;SDS011;20319;28.466;-16.274;2023-09-08T04:55:27;2.95;;;2.30;;
34030;SDS011;20319;28.466;-16.274;2023-09-08T04:57:53;3.33;;;1.95;;
34030;SDS011;20319;28.466;-16.274;2023-09-08T05:00:19;4.20;;;2.28;;
34030;SDS011;20319;28.466;-16.274;2023-09-08T05:02:45;2.97;;;2.20;;
34030;SDS011;20319;28.466;-16.274;2023-09-08T05:05:10;2.83;;;2.00;;
34030;SDS011;20319;28.466;-16.274;2023-09-08T05:07:36;4.55;;;2.10;;
34030;SDS011;20319;28.466;-16.274;2023-09-08T05:10:02;5.15;;;2.30;;
34030;SDS011;20319;28.466;-16.274;2023-09-08T05:12:27;2.55;;;2.10;;
34030;SDS011;20319;28.466;-16.274;2023-09-08T05:14:53;4.50;;;2.35;;
34030;SDS011;20319;28.466;-16.274;2023-09-08T05:17:23;4.65;;;2.30;;
34030;SDS011;20319;28.466;-16.274;2023-09-08T05:19:49;10.80;;;2.90;;
34030;SDS011;20319;28.466;-16.274;2023-09-08T05:22:14;6.43;;;2.40;;
34030;SDS011;20319;28.466;-16.274;2023-09-08T05:24:42;4.82;;;2.20;;
34030;SDS011;20319;28.466;-16.274;2023-09-08T05:27:07;4.68;;;2.35;;
34030;SDS011;20319;28.466;-16.274;2023-09-08T05:29:33;3.13;;;2.55;;
34030;SDS011;20319;28.466;-16.274;2023-09-08T05:31:59;3.72;;;2.58;;
34030;SDS011;20319;28.466;-16.274;2023-09-08T05:34:24;4.35;;;2.22;;
34030;SDS011;20319;28.466;-16.274;2023-09-08T05:36:50;4.45;;;2.50;;
34030;SDS011;20319;28.466;-16.274;2023-09-08T05:39:15;5.90;;;3.00;;
34030;SDS011;20319;28.466;-16.274;2023-09-08T05:41:42;4.25;;;2.70;;
34030;SDS011;20319;28.466;-16.274;2023-09-08T05:44:08;4.18;;;2.60;;
34030;SDS011;20319;28.466;-16.274;2023-09-08T05:46:33;3.10;;;2.53;;
34030;SDS011;20319;28.466;-16.274;2023-09-08T05:48:59;6.32;;;3.42;;
34030;SDS011;20319;28.466;-16.274;2023-09-08T05:51:25;4.32;;;2.78;;
34030;SDS011;20319;28.466;-16.274;2023-09-08T05:53:50;3.92;;;2.67;;
34030;SDS011;20319;28.466;-16.274;2023-09-08T05:56:18;3.78;;;2.50;;
34030;SDS011;20319;28.466;-16.274;2023-09-08T05:58:44;5.45;;;2.90;;
34030;SDS011;20319;28.466;-16.274;2023-09-08T06:01:10;4.32;;;2.72;;
34030;SDS011;20319;28.466;-16.274;2023-09-08T06:03:36;5.43;;;2.85;;
34030;SDS011;20319;28.466;-16.274;2023-09-08T06:06:01;4.45;;;2.80;;
34030;SDS011;20319;28.466;-16.274;2023-09-08T06:08:27;4.85;;;2.85;;
34030;SDS011;20319;28.466;-16.274;2023-09-08T06:10:52;7.55;;;4.28;;
34030;SDS011;20319;28.466;-16.274;2023-09-08T06:13:18;4.85;;;3.13;;
34030;SDS011;20319;28.466;-16.274;2023-09-08T06:15:44;4.22;;;3.53;;
34030;SDS011;20319;28.466;-16.274;2023-09-08T06:18:10;5.63;;;3.53;;
34030;SDS011;20319;28.466;-16.274;2023-09-08T06:20:36;10.00;;;4.35;;
34030;SDS011;20319;28.466;-16.274;2023-09-08T06:23:02;6.75;;;3.80;;
34030;SDS011;20319;28.466;-16.274;2023-09-08T06:25:28;8.70;;;4.60;;
34030;SDS011;20319;28.466;-16.274;2023-09-08T06:27:53;7.70;;;5.20;;
34030;SDS011;20319;28.466;-16.274;2023-09-08T06:30:19;8.75;;;4.50;;
34030;SDS011;20319;28.466;-16.274;2023-09-08T06:32:45;14.55;;;6.45;;
34030;SDS011;20319;28.466;-16.274;2023-09-08T06:35:10;16.65;;;5.70;;
34030;SDS011;20319;28.466;-16.274;2023-09-08T06:37:36;15.68;;;5.70;;
34030;SDS011;20319;28.466;-16.274;2023-09-08T06:40:03;8.40;;;4.18;;
34030;SDS011;20319;28.466;-16.274;2023-09-08T06:42:30;10.45;;;4.70;;
34030;SDS011;20319;28.466;-16.274;2023-09-08T06:44:56;13.13;;;5.18;;
34030;SDS011;20319;28.466;-16.274;2023-09-08T06:47:21;12.30;;;4.57;;
34030;SDS011;20319;28.466;-16.274;2023-09-08T06:49:47;9.75;;;4.43;;
34030;SDS011;20319;28.466;-16.274;2023-09-08T06:52:12;10.02;;;4.25;;
34030;SDS011;20319;28.466;-16.274;2023-09-08T06:54:38;5.80;;;4.47;;
34030;SDS011;20319;28.466;-16.274;2023-09-08T06:57:04;5.15;;;3.40;;
34030;SDS011;20319;28.466;-16.274;2023-09-08T06:59:29;8.15;;;4.60;;
34030;SDS011;20319;28.466;-16.274;2023-09-08T07:01:55;10.77;;;4.32;;
34030;SDS011;20319;28.466;-16.274;2023-09-08T07:04:21;34.03;;;5.88;;
34030;SDS011;20319;28.466;-16.274;2023-09-08T07:06:46;32.28;;;5.57;;
34030;SDS011;20319;28.466;-16.274;2023-09-08T07:09:12;10.98;;;4.10;;
34030;SDS011;20319;28.466;-16.274;2023-09-08T07:11:38;9.00;;;4.80;;
34030;SDS011;20319;28.466;-16.274;2023-09-08T07:14:04;16.90;;;4.35;;
34030;SDS011;20319;28.466;-16.274;2023-09-08T07:16:29;10.60;;;5.07;;
34030;SDS011;20319;28.466;-16.274;2023-09-08T07:18:55;7.03;;;4.68;;
34030;SDS011;20319;28.466;-16.274;2023-09-08T07:21:20;7.13;;;4.55;;
34030;SDS011;20319;28.466;-16.274;2023-09-08T07:23:46;7.35;;;4.80;;
34030;SDS011;20319;28.466;-16.274;2023-09-08T07:26:12;8.40;;;5.47;;
34030;SDS011;20319;28.466;-16.274;2023-09-08T07:28:37;8.18;;;4.28;;
34030;SDS011;20319;28.466;-16.274;2023-09-08T07:31:04;7.55;;;4.50;;
34030;SDS011;20319;28.466;-16.274;2023-09-08T07:33:30;9.52;;;4.70;;
34030;SDS011;20319;28.466;-16.274;2023-09-08T07:35:56;10.32;;;5.45;;
34030;SDS011;20319;28.466;-16.274;2023-09-08T07:38:22;10.23;;;4.75;;
34030;SDS011;20319;28.466;-16.274;2023-09-08T07:40:47;7.22;;;4.95;;
34030;SDS011;20319;28.466;-16.274;2023-09-08T07:43:13;20.55;;;14.68;;
34030;SDS011;20319;28.466;-16.274;2023-09-08T07:45:39;7.70;;;5.70;;
34030;SDS011;20319;28.466;-16.274;2023-09-08T07:48:05;11.00;;;5.03;;
34030;SDS011;20319;28.466;-16.274;2023-09-08T07:50:31;8.52;;;4.60;;
34030;SDS011;20319;28.466;-16.274;2023-09-08T07:52:57;6.57;;;4.55;;
34030;SDS011;20319;28.466;-16.274;2023-09-08T07:55:23;7.43;;;5.50;;
34030;SDS011;20319;28.466;-16.274;2023-09-08T07:57:52;7.97;;;4.97;;
34030;SDS011;20319;28.466;-16.274;2023-09-08T08:00:19;8.15;;;4.40;;
34030;SDS011;20319;28.466;-16.274;2023-09-08T08:02:51;6.88;;;4.43;;
34030;SDS011;20319;28.466;-16.274;2023-09-08T08:05:19;7.30;;;4.28;;
34030;SDS011;20319;28.466;-16.274;2023-09-08T08:07:45;6.38;;;3.50;;
34030;SDS011;20319;28.466;-16.274;2023-09-08T08:10:11;6.15;;;3.30;;
34030;SDS011;20319;28.466;-16.274;2023-09-08T08:12:38;6.50;;;3.92;;
34030;SDS011;20319;28.466;-16.274;2023-09-08T08:15:07;3.85;;;2.78;;
34030;SDS011;20319;28.466;-16.274;2023-09-08T08:17:37;7.65;;;3.28;;
34030;SDS011;20319;28.466;-16.274;2023-09-08T08:20:04;4.18;;;2.70;;
34030;SDS011;20319;28.466;-16.274;2023-09-08T08:22:34;3.05;;;2.50;;
34030;SDS011;20319;28.466;-16.274;2023-09-08T08:25:01;3.92;;;2.42;;
34030;SDS011;20319;28.466;-16.274;2023-09-08T08:27:28;6.47;;;5.50;;
34030;SDS011;20319;28.466;-16.274;2023-09-08T08:29:56;5.35;;;2.92;;
34030;SDS011;20319;28.466;-16.274;2023-09-08T08:32:24;4.80;;;2.20;;
34030;SDS011;20319;28.466;-16.274;2023-09-08T08:34:51;3.47;;;2.40;;
34030;SDS011;20319;28.466;-16.274;2023-09-08T08:37:16;2.75;;;2.15;;
34030;SDS011;20319;28.466;-16.274;2023-09-08T08:39:43;3.38;;;2.10;;
34030;SDS011;20319;28.466;-16.274;2023-09-08T08:42:09;2.53;;;1.92;;
34030;SDS011;20319;28.466;-16.274;2023-09-08T08:44:35;3.70;;;1.80;;
34030;SDS011;20319;28.466;-16.274;2023-09-08T08:47:03;2.25;;;1.55;;
34030;SDS011;20319;28.466;-16.274;2023-09-08T08:49:32;2.83;;;1.73;;
34030;SDS011;20319;28.466;-16.274;2023-09-08T08:51:58;3.28;;;2.17;;
34030;SDS011;20319;28.466;-16.274;2023-09-08T08:54:25;2.83;;;2.00;;
34030;SDS011;20319;28.466;-16.274;2023-09-08T08:56:51;3.70;;;2.08;;
34030;SDS011;20319;28.466;-16.274;2023-09-08T08:59:18;3.67;;;1.77;;
34030;SDS011;20319;28.466;-16.274;2023-09-08T09:01:44;5.00;;;1.80;;
34030;SDS011;20319;28.466;-16.274;2023-09-08T09:04:10;5.93;;;2.22;;
34030;SDS011;20319;28.466;-16.274;2023-09-08T09:06:37;5.28;;;2.60;;
34030;SDS011;20319;28.466;-16.274;2023-09-08T09:09:03;5.90;;;2.40;;
34030;SDS011;20319;28.466;-16.274;2023-09-08T09:11:33;8.00;;;3.03;;
34030;SDS011;20319;28.466;-16.274;2023-09-08T09:13:59;9.65;;;2.92;;
34030;SDS011;20319;28.466;-16.274;2023-09-08T09:16:24;7.45;;;3.10;;
34030;SDS011;20319;28.466;-16.274;2023-09-08T09:18:57;7.97;;;2.70;;
34030;SDS011;20319;28.466;-16.274;2023-09-08T09:21:24;9.15;;;3.25;;
34030;SDS011;20319;28.466;-16.274;2023-09-08T09:24:28;4.50;;;2.15;;
34030;SDS011;20319;28.466;-16.274;2023-09-08T09:26:57;5.28;;;2.00;;
34030;SDS011;20319;28.466;-16.274;2023-09-08T09:29:24;6.35;;;2.58;;
34030;SDS011;20319;28.466;-16.274;2023-09-08T09:31:50;8.50;;;3.08;;
34030;SDS011;20319;28.466;-16.274;2023-09-08T09:34:18;10.95;;;3.85;;
34030;SDS011;20319;28.466;-16.274;2023-09-08T09:36:47;10.65;;;3.30;;
34030;SDS011;20319;28.466;-16.274;2023-09-08T09:39:19;9.98;;;3.88;;
34030;SDS011;20319;28.466;-16.274;2023-09-08T09:41:46;6.65;;;3.17;;
34030;SDS011;20319;28.466;-16.274;2023-09-08T09:44:13;8.27;;;3.13;;
34030;SDS011;20319;28.466;-16.274;2023-09-08T09:46:43;7.20;;;3.10;;
34030;SDS011;20319;28.466;-16.274;2023-09-08T09:49:11;5.63;;;2.78;;
34030;SDS011;20319;28.466;-16.274;2023-09-08T09:51:48;6.75;;;2.90;;
34030;SDS011;20319;28.466;-16.274;2023-09-08T09:54:16;7.55;;;2.70;;
34030;SDS011;20319;28.466;-16.274;2023-09-08T09:56:42;6.97;;;2.80;;
34030;SDS011;20319;28.466;-16.274;2023-09-08T09:59:10;7.55;;;2.92;;
34030;SDS011;20319;28.466;-16.274;2023-09-08T10:01:38;5.85;;;2.42;;
34030;SDS011;20319;28.466;-16.274;2023-09-08T10:04:05;7.70;;;2.40;;
34030;SDS011;20319;28.466;-16.274;2023-09-08T10:06:35;5.95;;;2.33;;
34030;SDS011;20319;28.466;-16.274;2023-09-08T10:09:02;5.40;;;2.30;;
34030;SDS011;20319;28.466;-16.274;2023-09-08T10:11:34;4.03;;;1.73;;
34030;SDS011;20319;28.466;-16.274;2023-09-08T10:14:03;3.50;;;2.80;;
34030;SDS011;20319;28.466;-16.274;2023-09-08T10:16:33;3.75;;;2.20;;
34030;SDS011;20319;28.466;-16.274;2023-09-08T10:19:00;3.88;;;2.08;;
34030;SDS011;20319;28.466;-16.274;2023-09-08T10:21:26;4.80;;;1.90;;
34030;SDS011;20319;28.466;-16.274;2023-09-08T10:23:56;4.57;;;2.10;;
34030;SDS011;20319;28.466;-16.274;2023-09-08T10:26:29;4.57;;;2.00;;
34030;SDS011;20319;28.466;-16.274;2023-09-08T10:28:58;4.82;;;2.15;;
34030;SDS011;20319;28.466;-16.274;2023-09-08T10:31:27;2.85;;;1.90;;
34030;SDS011;20319;28.466;-16.274;2023-09-08T10:33:56;3.65;;;2.05;;
34030;SDS011;20319;28.466;-16.274;2023-09-08T10:36:23;3.80;;;1.90;;
34030;SDS011;20319;28.466;-16.274;2023-09-08T10:38:49;2.80;;;1.65;;
34030;SDS011;20319;28.466;-16.274;2023-09-08T10:43:55;3.13;;;1.80;;
34030;SDS011;20319;28.466;-16.274;2023-09-08T10:46:23;4.40;;;1.92;;
34030;SDS011;20319;28.466;-16.274;2023-09-08T10:48:52;2.28;;;1.70;;
34030;SDS011;20319;28.466;-16.274;2023-09-08T10:51:19;4.32;;;2.10;;
34030;SDS011;20319;28.466;-16.274;2023-09-08T10:53:48;2.65;;;1.50;;
34030;SDS011;20319;28.466;-16.274;2023-09-08T10:56:17;2.63;;;1.48;;
34030;SDS011;20319;28.466;-16.274;2023-09-08T10:58:43;4.28;;;2.08;;
34030;SDS011;20319;28.466;-16.274;2023-09-08T11:01:18;4.05;;;1.70;;
34030;SDS011;20319;28.466;-16.274;2023-09-08T11:03:51;4.03;;;1.80;;
34030;SDS011;20319;28.466;-16.274;2023-09-08T11:06:19;3.78;;;1.80;;
34030;SDS011;20319;28.466;-16.274;2023-09-08T11:08:49;4.50;;;1.70;;
34030;SDS011;20319;28.466;-16.274;2023-09-08T11:11:18;6.72;;;1.92;;
34030;SDS011;20319;28.466;-16.274;2023-09-08T11:13:44;4.95;;;1.88;;
34030;SDS011;20319;28.466;-16.274;2023-09-08T11:16:13;3.60;;;2.10;;
34030;SDS011;20319;28.466;-16.274;2023-09-08T11:18:40;3.10;;;1.70;;
34030;SDS011;20319;28.466;-16.274;2023-09-08T11:21:07;5.63;;;2.30;;
34030;SDS011;20319;28.466;-16.274;2023-09-08T11:23:34;4.07;;;1.90;;
34030;SDS011;20319;28.466;-16.274;2023-09-08T11:26:00;3.13;;;1.70;;
34030;SDS011;20319;28.466;-16.274;2023-09-08T11:28:27;3.35;;;1.63;;
34030;SDS011;20319;28.466;-16.274;2023-09-08T11:30:53;2.45;;;1.58;;
34030;SDS011;20319;28.466;-16.274;2023-09-08T11:33:21;4.32;;;1.80;;
34030;SDS011;20319;28.466;-16.274;2023-09-08T11:35:52;5.00;;;1.60;;
34030;SDS011;20319;28.466;-16.274;2023-09-08T11:38:22;5.57;;;2.10;;
34030;SDS011;20319;28.466;-16.274;2023-09-08T11:40:51;5.07;;;1.70;;
34030;SDS011;20319;28.466;-16.274;2023-09-08T11:43:17;5.55;;;2.33;;
34030;SDS011;20319;28.466;-16.274;2023-09-08T11:45:43;2.90;;;1.75;;
34030;SDS011;20319;28.466;-16.274;2023-09-08T11:48:09;3.63;;;2.10;;
34030;SDS011;20319;28.466;-16.274;2023-09-08T11:50:35;3.67;;;1.63;;
34030;SDS011;20319;28.466;-16.274;2023-09-08T11:53:01;3.90;;;1.90;;
34030;SDS011;20319;28.466;-16.274;2023-09-08T11:55:28;3.42;;;1.60;;
34030;SDS011;20319;28.466;-16.274;2023-09-08T11:57:54;3.80;;;2.03;;
34030;SDS011;20319;28.466;-16.274;2023-09-08T12:00:25;3.72;;;1.88;;
34030;SDS011;20319;28.466;-16.274;2023-09-08T12:02:52;5.40;;;2.13;;
34030;SDS011;20319;28.466;-16.274;2023-09-08T12:05:22;3.85;;;1.95;;
34030;SDS011;20319;28.466;-16.274;2023-09-08T12:07:58;3.90;;;2.30;;
34030;SDS011;20319;28.466;-16.274;2023-09-08T12:10:24;5.43;;;3.00;;
34030;SDS011;20319;28.466;-16.274;2023-09-08T12:12:51;4.22;;;2.90;;
34030;SDS011;20319;28.466;-16.274;2023-09-08T12:15:31;5.40;;;2.72;;
34030;SDS011;20319;28.466;-16.274;2023-09-08T12:18:10;5.00;;;2.60;;
34030;SDS011;20319;28.466;-16.274;2023-09-08T12:20:38;4.75;;;2.60;;
34030;SDS011;20319;28.466;-16.274;2023-09-08T12:23:05;7.50;;;2.80;;
34030;SDS011;20319;28.466;-16.274;2023-09-08T12:25:46;5.40;;;3.15;;
34030;SDS011;20319;28.466;-16.274;2023-09-08T12:28:17;6.37;;;3.90;;
34030;SDS011;20319;28.466;-16.274;2023-09-08T12:30:44;8.73;;;4.82;;
34030;SDS011;20319;28.466;-16.274;2023-09-08T12:33:10;8.55;;;5.82;;
34030;SDS011;20319;28.466;-16.274;2023-09-08T12:35:36;8.00;;;5.35;;
34030;SDS011;20319;28.466;-16.274;2023-09-08T12:38:02;7.72;;;5.47;;
34030;SDS011;20319;28.466;-16.274;2023-09-08T12:40:30;8.43;;;5.07;;
34030;SDS011;20319;28.466;-16.274;2023-09-08T12:42:59;6.68;;;5.00;;
34030;SDS011;20319;28.466;-16.274;2023-09-08T12:45:25;7.15;;;5.03;;
34030;SDS011;20319;28.466;-16.274;2023-09-08T12:47:51;8.95;;;5.35;;
34030;SDS011;20319;28.466;-16.274;2023-09-08T12:50:17;9.60;;;5.35;;
34030;SDS011;20319;28.466;-16.274;2023-09-08T12:52:43;9.68;;;5.57;;
34030;SDS011;20319;28.466;-16.274;2023-09-08T12:55:09;7.68;;;4.70;;
34030;SDS011;20319;28.466;-16.274;2023-09-08T12:57:35;8.23;;;4.30;;
34030;SDS011;20319;28.466;-16.274;2023-09-08T13:00:02;7.72;;;4.28;;
34030;SDS011;20319;28.466;-16.274;2023-09-08T13:02:31;8.07;;;4.13;;
34030;SDS011;20319;28.466;-16.274;2023-09-08T13:04:56;6.53;;;3.75;;
34030;SDS011;20319;28.466;-16.274;2023-09-08T13:07:23;6.75;;;4.00;;
34030;SDS011;20319;28.466;-16.274;2023-09-08T13:09:49;7.38;;;3.58;;
34030;SDS011;20319;28.466;-16.274;2023-09-08T13:12:15;7.68;;;3.63;;
34030;SDS011;20319;28.466;-16.274;2023-09-08T13:14:41;6.18;;;3.70;;
34030;SDS011;20319;28.466;-16.274;2023-09-08T13:17:08;5.95;;;3.30;;
34030;SDS011;20319;28.466;-16.274;2023-09-08T13:19:35;5.93;;;3.60;;
34030;SDS011;20319;28.466;-16.274;2023-09-08T13:22:03;5.20;;;3.63;;
34030;SDS011;20319;28.466;-16.274;2023-09-08T13:24:29;7.00;;;3.42;;
34030;SDS011;20319;28.466;-16.274;2023-09-08T13:26:55;10.27;;;4.22;;
34030;SDS011;20319;28.466;-16.274;2023-09-08T13:29:21;7.38;;;4.00;;
34030;SDS011;20319;28.466;-16.274;2023-09-08T13:31:46;7.40;;;3.92;;
34030;SDS011;20319;28.466;-16.274;2023-09-08T13:34:12;6.85;;;4.13;;
34030;SDS011;20319;28.466;-16.274;2023-09-08T13:36:38;7.72;;;4.25;;
34030;SDS011;20319;28.466;-16.274;2023-09-08T13:39:03;9.05;;;4.60;;
34030;SDS011;20319;28.466;-16.274;2023-09-08T13:44:16;8.10;;;5.18;;
34030;SDS011;20319;28.466;-16.274;2023-09-08T13:46:43;8.25;;;4.82;;
34030;SDS011;20319;28.466;-16.274;2023-09-08T13:49:08;8.80;;;5.50;;
34030;SDS011;20319;28.466;-16.274;2023-09-08T13:51:34;7.90;;;5.40;;
34030;SDS011;20319;28.466;-16.274;2023-09-08T13:54:00;9.25;;;5.07;;
34030;SDS011;20319;28.466;-16.274;2023-09-08T13:56:26;8.27;;;5.07;;
34030;SDS011;20319;28.466;-16.274;2023-09-08T13:58:52;8.90;;;5.70;;
34030;SDS011;20319;28.466;-16.274;2023-09-08T14:01:18;8.10;;;5.40;;
34030;SDS011;20319;28.466;-16.274;2023-09-08T14:03:43;8.82;;;4.90;;
34030;SDS011;20319;28.466;-16.274;2023-09-08T14:06:09;10.70;;;5.47;;
34030;SDS011;20319;28.466;-16.274;2023-09-08T14:08:34;8.35;;;4.95;;
34030;SDS011;20319;28.466;-16.274;2023-09-08T14:11:00;7.63;;;4.93;;
34030;SDS011;20319;28.466;-16.274;2023-09-08T14:13:25;8.13;;;5.63;;
34030;SDS011;20319;28.466;-16.274;2023-09-08T14:15:51;13.02;;;7.68;;
34030;SDS011;20319;28.466;-16.274;2023-09-08T14:18:18;14.93;;;8.57;;
34030;SDS011;20319;28.466;-16.274;2023-09-08T14:20:44;12.60;;;8.02;;
34030;SDS011;20319;28.466;-16.274;2023-09-08T14:23:09;14.15;;;9.02;;
34030;SDS011;20319;28.466;-16.274;2023-09-08T14:25:35;14.65;;;10.23;;
34030;SDS011;20319;28.466;-16.274;2023-09-08T14:28:00;17.70;;;10.40;;
34030;SDS011;20319;28.466;-16.274;2023-09-08T14:30:29;16.90;;;10.23;;